PWSweather.com
Personal Weather Stations
Station Observations
KVAGLENALL
West Henrico, Glen Allen, VA 23060-6503

West HenricoGlen Allen, VA 23060-6503

Lat: 37.6554, Lon: -77.5693

Elevation: 273

Station Type: Davis Vantage Pro II

www.glenallenweather.com

High Low Average
Temperature 59.3°F15.2°C 35.7°F2.1°C 48.4°F9.1°C
Dew Point 46.3°F7.9°C 32.8°F0.4°C 38.7°F3.7°C
Winds 15.1 mph 24.3 kmh 0.1 mph 0.2 kmh 3.0 mph ESE4.8 kmh ESE
Wind Gusts 18.2 mph29.3 kmh 0.1 mph0.2 kmh 5.0 mph8.0 kmh
Humidity 93% 45% 71%
Pressure 30.30 in1026.1 mb 30.05 in1017.6 mb -
Precipitation 0.00 in0.0 mm - -
Hour Temp Dew Point Humidity Winds Wind Gusts Pressure Precip Precip Rate Daily Precip Total
12:00 AM 52.0°F11.1°C 46.3°F7.9°C 81% 1.0 mph SSW1.6 kmh SSW 3.1 mph5.0 kmh 30.05 in1017.6 mb 0.00 in0.0 mm 0.00 in0.0 mm 0.00 in0.0 mm
12:15 AM 52.3°F11.3°C 46.3°F7.9°C 80% 2.0 mph SSW3.2 kmh SSW 3.1 mph5.0 kmh 30.05 in1017.6 mb 0.00 in0.0 mm 0.00 in0.0 mm 0.00 in0.0 mm
12:30 AM 52.2°F11.2°C 46.5°F8.1°C 81% 2.0 mph SSW3.2 kmh SSW 3.1 mph5.0 kmh 30.05 in1017.6 mb 0.00 in0.0 mm 0.00 in0.0 mm 0.00 in0.0 mm
12:45 AM 52.2°F11.2°C 46.2°F7.9°C 80% 1.0 mph SSW1.6 kmh SSW 3.1 mph5.0 kmh 30.05 in1017.6 mb 0.00 in0.0 mm 0.00 in0.0 mm 0.00 in0.0 mm
01:00 AM 52.5°F11.4°C 46.2°F7.9°C 79% 0.1 mph SSW0.2 kmh SSW 0.1 mph0.2 kmh 30.05 in1017.6 mb 0.00 in0.0 mm 0.00 in0.0 mm 0.00 in0.0 mm
01:15 AM 52.4°F11.3°C 46.1°F7.8°C 79% 1.0 mph SSW1.6 kmh SSW 2.1 mph3.4 kmh 30.05 in1017.6 mb 0.00 in0.0 mm 0.00 in0.0 mm 0.00 in0.0 mm
01:30 AM 52.3°F11.3°C 46.3°F7.9°C 80% 0.1 mph SSW0.2 kmh SSW 0.1 mph0.2 kmh 30.05 in1017.6 mb 0.00 in0.0 mm 0.00 in0.0 mm 0.00 in0.0 mm
01:45 AM 51.6°F10.9°C 45.9°F7.7°C 81% 0.1 mph SSW0.2 kmh SSW 2.1 mph3.4 kmh 30.05 in1017.6 mb 0.00 in0.0 mm 0.00 in0.0 mm 0.00 in0.0 mm
02:00 AM 50.6°F10.3°C 45.0°F7.2°C 81% 1.0 mph SSW1.6 kmh SSW 2.1 mph3.4 kmh 30.05 in1017.6 mb 0.00 in0.0 mm 0.00 in0.0 mm 0.00 in0.0 mm
02:15 AM 49.7°F9.8°C 44.4°F6.9°C 82% 0.1 mph SW0.2 kmh SW 0.1 mph0.2 kmh 30.05 in1017.6 mb 0.00 in0.0 mm 0.00 in0.0 mm 0.00 in0.0 mm
02:30 AM 48.8°F9.3°C 43.9°F6.6°C 83% 0.1 mph SW0.2 kmh SW 0.1 mph0.2 kmh 30.05 in1017.6 mb 0.00 in0.0 mm 0.00 in0.0 mm 0.00 in0.0 mm
02:45 AM 47.8°F8.8°C 43.6°F6.4°C 85% 0.1 mph SW0.2 kmh SW 0.1 mph0.2 kmh 30.05 in1017.6 mb 0.00 in0.0 mm 0.00 in0.0 mm 0.00 in0.0 mm
03:00 AM 47.4°F8.6°C 43.5°F6.4°C 86% 0.1 mph SW0.2 kmh SW 0.1 mph0.2 kmh 30.05 in1017.6 mb 0.00 in0.0 mm 0.00 in0.0 mm 0.00 in0.0 mm
03:15 AM 46.7°F8.2°C 43.1°F6.2°C 87% 0.1 mph SW0.2 kmh SW 0.1 mph0.2 kmh 30.05 in1017.6 mb 0.00 in0.0 mm 0.00 in0.0 mm 0.00 in0.0 mm
03:30 AM 46.3°F7.9°C 43.0°F6.1°C 88% 0.1 mph SW0.2 kmh SW 1.1 mph1.8 kmh 30.06 in1017.9 mb 0.00 in0.0 mm 0.00 in0.0 mm 0.00 in0.0 mm
03:45 AM 45.7°F7.6°C 42.4°F5.8°C 88% 0.1 mph SW0.2 kmh SW 0.1 mph0.2 kmh 30.06 in1017.9 mb 0.00 in0.0 mm 0.00 in0.0 mm 0.00 in0.0 mm
04:00 AM 44.9°F7.2°C 41.9°F5.5°C 89% 0.1 mph SW0.2 kmh SW 0.1 mph0.2 kmh 30.06 in1017.9 mb 0.00 in0.0 mm 0.00 in0.0 mm 0.00 in0.0 mm
04:15 AM 44.4°F6.9°C 41.7°F5.4°C 90% 0.1 mph SW0.2 kmh SW 0.1 mph0.2 kmh 30.06 in1017.9 mb 0.00 in0.0 mm 0.00 in0.0 mm 0.00 in0.0 mm
04:30 AM 44.1°F6.7°C 41.7°F5.4°C 91% 0.1 mph SW0.2 kmh SW 0.1 mph0.2 kmh 30.06 in1017.9 mb 0.00 in0.0 mm 0.00 in0.0 mm 0.00 in0.0 mm
04:45 AM 43.9°F6.6°C 41.5°F5.3°C 91% 1.0 mph N1.6 kmh N 2.1 mph3.4 kmh 30.07 in1018.3 mb 0.00 in0.0 mm 0.00 in0.0 mm 0.00 in0.0 mm
05:00 AM 43.4°F6.3°C 41.3°F5.2°C 92% 2.0 mph N3.2 kmh N 3.1 mph5.0 kmh 30.08 in1018.6 mb 0.00 in0.0 mm 0.00 in0.0 mm 0.00 in0.0 mm
05:15 AM 43.0°F6.1°C 40.9°F4.9°C 92% 1.0 mph NNW1.6 kmh NNW 1.1 mph1.8 kmh 30.08 in1018.6 mb 0.00 in0.0 mm 0.00 in0.0 mm 0.00 in0.0 mm
05:30 AM 42.6°F5.9°C 40.5°F4.7°C 92% 1.0 mph NNW1.6 kmh NNW 1.1 mph1.8 kmh 30.10 in1019.3 mb 0.00 in0.0 mm 0.00 in0.0 mm 0.00 in0.0 mm
05:45 AM 42.3°F5.7°C 40.4°F4.7°C 93% 1.0 mph N1.6 kmh N 2.1 mph3.4 kmh 30.11 in1019.6 mb 0.00 in0.0 mm 0.00 in0.0 mm 0.00 in0.0 mm
06:00 AM 42.4°F5.8°C 40.5°F4.7°C 93% 2.0 mph N3.2 kmh N 8.1 mph13.0 kmh 30.11 in1019.6 mb 0.00 in0.0 mm 0.00 in0.0 mm 0.00 in0.0 mm
06:15 AM 44.0°F6.7°C 41.3°F5.2°C 90% 6.1 mph N9.8 kmh N 8.1 mph13.0 kmh 30.12 in1020.0 mb 0.00 in0.0 mm 0.00 in0.0 mm 0.00 in0.0 mm
06:30 AM 45.4°F7.4°C 41.8°F5.4°C 87% 6.1 mph NE9.8 kmh NE 9.1 mph14.6 kmh 30.12 in1020.0 mb 0.00 in0.0 mm 0.00 in0.0 mm 0.00 in0.0 mm
06:45 AM 45.8°F7.7°C 41.6°F5.3°C 85% 7.1 mph NE11.4 kmh NE 8.1 mph13.0 kmh 30.13 in1020.3 mb 0.00 in0.0 mm 0.00 in0.0 mm 0.00 in0.0 mm
07:00 AM 46.1°F7.8°C 41.6°F5.3°C 84% 3.0 mph NE4.8 kmh NE 10.1 mph16.3 kmh 30.14 in1020.7 mb 0.00 in0.0 mm 0.00 in0.0 mm 0.00 in0.0 mm
07:15 AM 46.3°F7.9°C 41.5°F5.3°C 83% 6.1 mph NE9.8 kmh NE 8.1 mph13.0 kmh 30.15 in1021.0 mb 0.00 in0.0 mm 0.00 in0.0 mm 0.00 in0.0 mm
07:30 AM 45.9°F7.7°C 41.1°F5.1°C 83% 3.0 mph NNE4.8 kmh NNE 6.1 mph9.8 kmh 30.16 in1021.3 mb 0.00 in0.0 mm 0.00 in0.0 mm 0.00 in0.0 mm
07:45 AM 45.3°F7.4°C 40.8°F4.9°C 84% 0.1 mph NE0.2 kmh NE 3.1 mph5.0 kmh 30.17 in1021.7 mb 0.00 in0.0 mm 0.00 in0.0 mm 0.00 in0.0 mm
08:00 AM 44.6°F7.0°C 40.4°F4.7°C 85% 4.1 mph N6.6 kmh N 5.1 mph8.2 kmh 30.18 in1022.0 mb 0.00 in0.0 mm 0.00 in0.0 mm 0.00 in0.0 mm
08:15 AM 44.5°F6.9°C 40.3°F4.6°C 85% 5.1 mph NNE8.2 kmh NNE 5.1 mph8.2 kmh 30.19 in1022.4 mb 0.00 in0.0 mm 0.00 in0.0 mm 0.00 in0.0 mm
08:30 AM 44.6°F7.0°C 40.1°F4.5°C 84% 4.1 mph NE6.6 kmh NE 6.1 mph9.8 kmh 30.20 in1022.7 mb 0.00 in0.0 mm 0.00 in0.0 mm 0.00 in0.0 mm
08:45 AM 44.9°F7.2°C 40.1°F4.5°C 83% 0.1 mph N0.2 kmh N 4.1 mph6.6 kmh 30.21 in1023.0 mb 0.00 in0.0 mm 0.00 in0.0 mm 0.00 in0.0 mm
09:00 AM 45.7°F7.6°C 40.2°F4.6°C 81% 4.1 mph NE6.6 kmh NE 8.1 mph13.0 kmh 30.21 in1023.0 mb 0.00 in0.0 mm 0.00 in0.0 mm 0.00 in0.0 mm
09:15 AM 47.2°F8.4°C 40.4°F4.7°C 77% 2.0 mph N3.2 kmh N 5.1 mph8.2 kmh 30.21 in1023.0 mb 0.00 in0.0 mm 0.00 in0.0 mm 0.00 in0.0 mm
09:30 AM 48.5°F9.2°C 40.6°F4.8°C 74% 7.1 mph NNE11.4 kmh NNE 10.1 mph16.3 kmh 30.22 in1023.4 mb 0.00 in0.0 mm 0.00 in0.0 mm 0.00 in0.0 mm
09:45 AM 49.2°F9.6°C 40.3°F4.6°C 71% 6.1 mph NNE9.8 kmh NNE 13.2 mph21.2 kmh 30.23 in1023.7 mb 0.00 in0.0 mm 0.00 in0.0 mm 0.00 in0.0 mm
10:00 AM 50.3°F10.2°C 40.9°F4.9°C 70% 9.1 mph NNE14.6 kmh NNE 10.1 mph16.3 kmh 30.23 in1023.7 mb 0.00 in0.0 mm 0.00 in0.0 mm 0.00 in0.0 mm
10:15 AM 51.3°F10.7°C 40.7°F4.8°C 67% 10.1 mph N16.3 kmh N 13.2 mph21.2 kmh 30.24 in1024.0 mb 0.00 in0.0 mm 0.00 in0.0 mm 0.00 in0.0 mm
10:30 AM 52.3°F11.3°C 40.5°F4.7°C 64% 15.1 mph N24.3 kmh N 18.2 mph29.3 kmh 30.25 in1024.4 mb 0.00 in0.0 mm 0.00 in0.0 mm 0.00 in0.0 mm
10:45 AM 52.7°F11.5°C 39.6°F4.2°C 61% 14.1 mph NNE22.7 kmh NNE 18.2 mph29.3 kmh 30.25 in1024.4 mb 0.00 in0.0 mm 0.00 in0.0 mm 0.00 in0.0 mm
11:00 AM 53.4°F11.9°C 39.9°F4.4°C 60% 12.1 mph NE19.5 kmh NE 15.2 mph24.5 kmh 30.25 in1024.4 mb 0.00 in0.0 mm 0.00 in0.0 mm 0.00 in0.0 mm
11:15 AM 53.9°F12.2°C 39.9°F4.4°C 59% 8.1 mph NE13.0 kmh NE 11.2 mph18.0 kmh 30.25 in1024.4 mb 0.00 in0.0 mm 0.00 in0.0 mm 0.00 in0.0 mm
11:30 AM 55.3°F12.9°C 40.8°F4.9°C 58% 2.0 mph NE3.2 kmh NE 15.2 mph24.5 kmh 30.25 in1024.4 mb 0.00 in0.0 mm 0.00 in0.0 mm 0.00 in0.0 mm
11:45 AM 55.6°F13.1°C 40.2°F4.6°C 56% 9.1 mph ENE14.6 kmh ENE 12.2 mph19.6 kmh 30.25 in1024.4 mb 0.00 in0.0 mm 0.00 in0.0 mm 0.00 in0.0 mm
12:00 PM 56.1°F13.4°C 40.2°F4.6°C 55% 5.1 mph N8.2 kmh N 9.1 mph14.6 kmh 30.25 in1024.4 mb 0.00 in0.0 mm 0.00 in0.0 mm 0.00 in0.0 mm
12:15 PM 56.6°F13.7°C 40.2°F4.6°C 54% 8.1 mph NNE13.0 kmh NNE 13.2 mph21.2 kmh 30.24 in1024.0 mb 0.00 in0.0 mm 0.00 in0.0 mm 0.00 in0.0 mm
12:30 PM 57.0°F13.9°C 39.6°F4.2°C 52% 5.1 mph N8.2 kmh N 10.1 mph16.3 kmh 30.24 in1024.0 mb 0.00 in0.0 mm 0.00 in0.0 mm 0.00 in0.0 mm
12:45 PM 57.7°F14.3°C 40.7°F4.8°C 53% 8.1 mph NNE13.0 kmh NNE 11.2 mph18.0 kmh 30.24 in1024.0 mb 0.00 in0.0 mm 0.00 in0.0 mm 0.00 in0.0 mm
01:00 PM 57.4°F14.1°C 39.9°F4.4°C 52% 3.0 mph NE4.8 kmh NE 7.1 mph11.4 kmh 30.23 in1023.7 mb 0.00 in0.0 mm 0.00 in0.0 mm 0.00 in0.0 mm
01:15 PM 58.5°F14.7°C 39.4°F4.1°C 49% 5.1 mph NE8.2 kmh NE 7.1 mph11.4 kmh 30.23 in1023.7 mb 0.00 in0.0 mm 0.00 in0.0 mm 0.00 in0.0 mm
01:30 PM 58.5°F14.7°C 39.4°F4.1°C 49% 3.0 mph E4.8 kmh E 7.1 mph11.4 kmh 30.22 in1023.4 mb 0.00 in0.0 mm 0.00 in0.0 mm 0.00 in0.0 mm
01:45 PM 58.1°F14.5°C 39.1°F3.9°C 49% 3.0 mph NNE4.8 kmh NNE 9.1 mph14.6 kmh 30.22 in1023.4 mb 0.00 in0.0 mm 0.00 in0.0 mm 0.00 in0.0 mm
02:00 PM 58.8°F14.9°C 38.1°F3.4°C 46% 2.0 mph E3.2 kmh E 4.1 mph6.6 kmh 30.21 in1023.0 mb 0.00 in0.0 mm 0.00 in0.0 mm 0.00 in0.0 mm
02:15 PM 58.7°F14.8°C 37.4°F3.0°C 45% 2.0 mph E3.2 kmh E 7.1 mph11.4 kmh 30.21 in1023.0 mb 0.00 in0.0 mm 0.00 in0.0 mm 0.00 in0.0 mm
02:30 PM 58.5°F14.7°C 37.8°F3.2°C 46% 4.1 mph ESE6.6 kmh ESE 7.1 mph11.4 kmh 30.21 in1023.0 mb 0.00 in0.0 mm 0.00 in0.0 mm 0.00 in0.0 mm
02:45 PM 59.3°F15.2°C 39.1°F3.9°C 47% 1.0 mph NNE1.6 kmh NNE 2.1 mph3.4 kmh 30.21 in1023.0 mb 0.00 in0.0 mm 0.00 in0.0 mm 0.00 in0.0 mm
03:00 PM 59.0°F15.0°C 37.7°F3.2°C 45% 8.1 mph NE13.0 kmh NE 10.1 mph16.3 kmh 30.21 in1023.0 mb 0.00 in0.0 mm 0.00 in0.0 mm 0.00 in0.0 mm
03:15 PM 59.0°F15.0°C 38.3°F3.5°C 46% 2.0 mph NNE3.2 kmh NNE 5.1 mph8.2 kmh 30.20 in1022.7 mb 0.00 in0.0 mm 0.00 in0.0 mm 0.00 in0.0 mm
03:30 PM 59.1°F15.1°C 38.4°F3.6°C 46% 2.0 mph NW3.2 kmh NW 3.1 mph5.0 kmh 30.20 in1022.7 mb 0.00 in0.0 mm 0.00 in0.0 mm 0.00 in0.0 mm
03:45 PM 58.6°F14.8°C 37.3°F2.9°C 45% 3.0 mph ESE4.8 kmh ESE 6.1 mph9.8 kmh 30.20 in1022.7 mb 0.00 in0.0 mm 0.00 in0.0 mm 0.00 in0.0 mm
04:00 PM 57.9°F14.4°C 37.3°F2.9°C 46% 3.0 mph NNE4.8 kmh NNE 3.1 mph5.0 kmh 30.20 in1022.7 mb 0.00 in0.0 mm 0.00 in0.0 mm 0.00 in0.0 mm
04:15 PM 57.5°F14.2°C 36.9°F2.7°C 46% 4.1 mph N6.6 kmh N 6.1 mph9.8 kmh 30.20 in1022.7 mb 0.00 in0.0 mm 0.00 in0.0 mm 0.00 in0.0 mm
04:30 PM 57.0°F13.9°C 37.0°F2.8°C 47% 1.0 mph NNE1.6 kmh NNE 4.1 mph6.6 kmh 30.20 in1022.7 mb 0.00 in0.0 mm 0.00 in0.0 mm 0.00 in0.0 mm
04:45 PM 56.5°F13.6°C 37.1°F2.8°C 48% 1.0 mph N1.6 kmh N 3.1 mph5.0 kmh 30.20 in1022.7 mb 0.00 in0.0 mm 0.00 in0.0 mm 0.00 in0.0 mm
05:00 PM 55.7°F13.2°C 36.8°F2.7°C 49% 3.0 mph NE4.8 kmh NE 5.1 mph8.2 kmh 30.21 in1023.0 mb 0.00 in0.0 mm 0.00 in0.0 mm 0.00 in0.0 mm
05:15 PM 55.2°F12.9°C 36.4°F2.4°C 49% 3.0 mph ENE4.8 kmh ENE 3.1 mph5.0 kmh 30.21 in1023.0 mb 0.00 in0.0 mm 0.00 in0.0 mm 0.00 in0.0 mm
05:30 PM 54.2°F12.3°C 36.5°F2.5°C 51% 3.0 mph NNE4.8 kmh NNE 4.1 mph6.6 kmh 30.22 in1023.4 mb 0.00 in0.0 mm 0.00 in0.0 mm 0.00 in0.0 mm
05:45 PM 52.8°F11.6°C 36.1°F2.3°C 53% 1.0 mph NNE1.6 kmh NNE 4.1 mph6.6 kmh 30.22 in1023.4 mb 0.00 in0.0 mm 0.00 in0.0 mm 0.00 in0.0 mm
06:00 PM 51.6°F10.9°C 36.4°F2.4°C 56% 2.0 mph NE3.2 kmh NE 2.1 mph3.4 kmh 30.22 in1023.4 mb 0.00 in0.0 mm 0.00 in0.0 mm 0.00 in0.0 mm
06:15 PM 50.0°F10.0°C 35.8°F2.1°C 58% 0.1 mph ENE0.2 kmh ENE 2.1 mph3.4 kmh 30.23 in1023.7 mb 0.00 in0.0 mm 0.00 in0.0 mm 0.00 in0.0 mm
06:30 PM 48.7°F9.3°C 35.9°F2.2°C 61% 1.0 mph NE1.6 kmh NE 3.1 mph5.0 kmh 30.24 in1024.0 mb 0.00 in0.0 mm 0.00 in0.0 mm 0.00 in0.0 mm
06:45 PM 47.6°F8.7°C 35.7°F2.1°C 63% 0.1 mph NE0.2 kmh NE 1.1 mph1.8 kmh 30.24 in1024.0 mb 0.00 in0.0 mm 0.00 in0.0 mm 0.00 in0.0 mm
07:00 PM 46.6°F8.1°C 35.5°F1.9°C 65% 0.1 mph NE0.2 kmh NE 1.1 mph1.8 kmh 30.24 in1024.0 mb 0.00 in0.0 mm 0.00 in0.0 mm 0.00 in0.0 mm
07:15 PM 45.3°F7.4°C 35.0°F1.7°C 67% 0.1 mph NE0.2 kmh NE 0.1 mph0.2 kmh 30.25 in1024.4 mb 0.00 in0.0 mm 0.00 in0.0 mm 0.00 in0.0 mm
07:30 PM 44.4°F6.9°C 34.9°F1.6°C 69% 0.1 mph NE0.2 kmh NE 0.1 mph0.2 kmh 30.25 in1024.4 mb 0.00 in0.0 mm 0.00 in0.0 mm 0.00 in0.0 mm
07:45 PM 43.8°F6.6°C 35.0°F1.7°C 71% 0.1 mph NE0.2 kmh NE 0.1 mph0.2 kmh 30.25 in1024.4 mb 0.00 in0.0 mm 0.00 in0.0 mm 0.00 in0.0 mm
08:00 PM 42.8°F6.0°C 34.4°F1.3°C 72% 0.1 mph NE0.2 kmh NE 0.1 mph0.2 kmh 30.26 in1024.7 mb 0.00 in0.0 mm 0.00 in0.0 mm 0.00 in0.0 mm
08:15 PM 42.9°F6.1°C 34.5°F1.4°C 72% 0.1 mph NE0.2 kmh NE 0.1 mph0.2 kmh 30.26 in1024.7 mb 0.00 in0.0 mm 0.00 in0.0 mm 0.00 in0.0 mm
08:30 PM 42.4°F5.8°C 34.4°F1.3°C 73% 0.1 mph NE0.2 kmh NE 0.1 mph0.2 kmh 30.26 in1024.7 mb 0.00 in0.0 mm 0.00 in0.0 mm 0.00 in0.0 mm
08:45 PM 42.0°F5.6°C 34.7°F1.5°C 75% 0.1 mph NE0.2 kmh NE 0.1 mph0.2 kmh 30.26 in1024.7 mb 0.00 in0.0 mm 0.00 in0.0 mm 0.00 in0.0 mm
09:00 PM 41.3°F5.2°C 34.3°F1.3°C 76% 0.1 mph NE0.2 kmh NE 1.1 mph1.8 kmh 30.26 in1024.7 mb 0.00 in0.0 mm 0.00 in0.0 mm 0.00 in0.0 mm
09:15 PM 40.6°F4.8°C 34.0°F1.1°C 77% 0.1 mph NE0.2 kmh NE 0.1 mph0.2 kmh 30.26 in1024.7 mb 0.00 in0.0 mm 0.00 in0.0 mm 0.00 in0.0 mm
09:30 PM 39.6°F4.2°C 33.6°F0.9°C 79% 0.1 mph E0.2 kmh E 3.1 mph5.0 kmh 30.27 in1025.1 mb 0.00 in0.0 mm 0.00 in0.0 mm 0.00 in0.0 mm
09:45 PM 39.0°F3.9°C 33.4°F0.8°C 80% 0.1 mph E0.2 kmh E 2.1 mph3.4 kmh 30.27 in1025.1 mb 0.00 in0.0 mm 0.00 in0.0 mm 0.00 in0.0 mm
10:00 PM 38.9°F3.8°C 33.3°F0.7°C 80% 0.1 mph E0.2 kmh E 1.1 mph1.8 kmh 30.27 in1025.1 mb 0.00 in0.0 mm 0.00 in0.0 mm 0.00 in0.0 mm
10:15 PM 39.1°F3.9°C 33.1°F0.6°C 79% 3.0 mph ESE4.8 kmh ESE 4.1 mph6.6 kmh 30.28 in1025.4 mb 0.00 in0.0 mm 0.00 in0.0 mm 0.00 in0.0 mm
10:30 PM 39.5°F4.2°C 33.2°F0.7°C 78% 3.0 mph E4.8 kmh E 3.1 mph5.0 kmh 30.28 in1025.4 mb 0.00 in0.0 mm 0.00 in0.0 mm 0.00 in0.0 mm
10:45 PM 40.4°F4.7°C 34.1°F1.2°C 78% 3.0 mph E4.8 kmh E 3.1 mph5.0 kmh 30.28 in1025.4 mb 0.00 in0.0 mm 0.00 in0.0 mm 0.00 in0.0 mm
11:00 PM 39.7°F4.3°C 34.0°F1.1°C 80% 2.0 mph ESE3.2 kmh ESE 2.1 mph3.4 kmh 30.28 in1025.4 mb 0.00 in0.0 mm 0.00 in0.0 mm 0.00 in0.0 mm
11:15 PM 39.2°F4.0°C 33.9°F1.1°C 81% 0.1 mph ESE0.2 kmh ESE 1.1 mph1.8 kmh 30.29 in1025.7 mb 0.00 in0.0 mm 0.00 in0.0 mm 0.00 in0.0 mm
11:30 PM 38.8°F3.8°C 34.1°F1.2°C 83% 0.1 mph ESE0.2 kmh ESE 0.1 mph0.2 kmh 30.29 in1025.7 mb 0.00 in0.0 mm 0.00 in0.0 mm 0.00 in0.0 mm
11:45 PM 38.2°F3.4°C 33.8°F1.0°C 84% 0.1 mph ESE0.2 kmh ESE 0.1 mph0.2 kmh 30.29 in1025.7 mb 0.00 in0.0 mm 0.00 in0.0 mm 0.00 in0.0 mm